sensor_id;sensor_type;location;lat;lon;timestamp;P1;durP1;ratioP1;P2;durP2;ratioP2
73760;SDS011;69240;43.530;-5.646;2023-05-18T00:01:34;18.45;;;7.22;;
73760;SDS011;69240;43.530;-5.646;2023-05-18T00:03:59;20.52;;;7.30;;
73760;SDS011;69240;43.530;-5.646;2023-05-18T00:06:25;24.73;;;7.15;;
73760;SDS011;69240;43.530;-5.646;2023-05-18T00:08:51;26.73;;;5.90;;
73760;SDS011;69240;43.530;-5.646;2023-05-18T00:11:17;15.88;;;5.05;;
73760;SDS011;69240;43.530;-5.646;2023-05-18T00:13:43;15.63;;;4.95;;
73760;SDS011;69240;43.530;-5.646;2023-05-18T00:16:08;14.43;;;4.95;;
73760;SDS011;69240;43.530;-5.646;2023-05-18T00:18:36;13.60;;;4.38;;
73760;SDS011;69240;43.530;-5.646;2023-05-18T00:21:01;9.88;;;3.70;;
73760;SDS011;69240;43.530;-5.646;2023-05-18T00:23:30;12.27;;;4.18;;
73760;SDS011;69240;43.530;-5.646;2023-05-18T00:25:57;6.30;;;2.97;;
73760;SDS011;69240;43.530;-5.646;2023-05-18T00:28:23;8.18;;;2.78;;
73760;SDS011;69240;43.530;-5.646;2023-05-18T00:30:50;10.00;;;3.50;;
73760;SDS011;69240;43.530;-5.646;2023-05-18T00:33:15;7.57;;;2.63;;
73760;SDS011;69240;43.530;-5.646;2023-05-18T00:35:41;5.85;;;2.67;;
73760;SDS011;69240;43.530;-5.646;2023-05-18T00:38:06;5.50;;;1.92;;
73760;SDS011;69240;43.530;-5.646;2023-05-18T00:40:32;9.40;;;2.80;;
73760;SDS011;69240;43.530;-5.646;2023-05-18T00:42:58;8.80;;;2.33;;
73760;SDS011;69240;43.530;-5.646;2023-05-18T00:45:24;8.02;;;2.40;;
73760;SDS011;69240;43.530;-5.646;2023-05-18T00:47:50;7.25;;;2.47;;
73760;SDS011;69240;43.530;-5.646;2023-05-18T00:50:16;8.50;;;2.40;;
73760;SDS011;69240;43.530;-5.646;2023-05-18T00:52:42;6.88;;;2.72;;
73760;SDS011;69240;43.530;-5.646;2023-05-18T00:55:09;11.95;;;3.25;;
73760;SDS011;69240;43.530;-5.646;2023-05-18T00:57:36;7.70;;;2.78;;
73760;SDS011;69240;43.530;-5.646;2023-05-18T01:00:03;8.55;;;2.63;;
73760;SDS011;69240;43.530;-5.646;2023-05-18T01:02:31;6.88;;;2.58;;
73760;SDS011;69240;43.530;-5.646;2023-05-18T01:04:57;8.57;;;2.83;;
73760;SDS011;69240;43.530;-5.646;2023-05-18T01:07:24;8.65;;;2.85;;
73760;SDS011;69240;43.530;-5.646;2023-05-18T01:09:53;5.25;;;2.20;;
73760;SDS011;69240;43.530;-5.646;2023-05-18T01:13:04;8.45;;;2.72;;
73760;SDS011;69240;43.530;-5.646;2023-05-18T01:15:38;9.13;;;2.60;;
73760;SDS011;69240;43.530;-5.646;2023-05-18T01:26:28;7.18;;;2.42;;
73760;SDS011;69240;43.530;-5.646;2023-05-18T01:28:59;7.78;;;2.40;;
73760;SDS011;69240;43.530;-5.646;2023-05-18T01:31:27;4.57;;;2.00;;
73760;SDS011;69240;43.530;-5.646;2023-05-18T01:33:53;6.50;;;2.20;;
73760;SDS011;69240;43.530;-5.646;2023-05-18T01:36:19;8.63;;;3.67;;
73760;SDS011;69240;43.530;-5.646;2023-05-18T01:38:45;11.55;;;5.03;;
73760;SDS011;69240;43.530;-5.646;2023-05-18T01:41:19;9.75;;;3.15;;
73760;SDS011;69240;43.530;-5.646;2023-05-18T01:52:19;6.07;;;2.33;;
73760;SDS011;69240;43.530;-5.646;2023-05-18T01:54:53;9.32;;;2.33;;
73760;SDS011;69240;43.530;-5.646;2023-05-18T01:57:21;5.15;;;2.15;;
73760;SDS011;69240;43.530;-5.646;2023-05-18T01:59:49;6.53;;;2.08;;
73760;SDS011;69240;43.530;-5.646;2023-05-18T02:02:16;8.88;;;2.55;;
73760;SDS011;69240;43.530;-5.646;2023-05-18T02:04:42;7.70;;;2.45;;
73760;SDS011;69240;43.530;-5.646;2023-05-18T02:07:07;4.28;;;1.70;;
73760;SDS011;69240;43.530;-5.646;2023-05-18T02:09:33;4.68;;;2.13;;
73760;SDS011;69240;43.530;-5.646;2023-05-18T02:11:58;6.07;;;2.25;;
73760;SDS011;69240;43.530;-5.646;2023-05-18T02:14:24;10.88;;;2.70;;
73760;SDS011;69240;43.530;-5.646;2023-05-18T02:16:50;5.68;;;2.20;;
73760;SDS011;69240;43.530;-5.646;2023-05-18T02:19:17;5.18;;;2.25;;
73760;SDS011;69240;43.530;-5.646;2023-05-18T02:21:43;8.80;;;2.40;;
73760;SDS011;69240;43.530;-5.646;2023-05-18T02:24:09;4.32;;;2.15;;
73760;SDS011;69240;43.530;-5.646;2023-05-18T02:26:36;4.55;;;2.28;;
73760;SDS011;69240;43.530;-5.646;2023-05-18T02:29:02;5.72;;;1.92;;
73760;SDS011;69240;43.530;-5.646;2023-05-18T02:31:30;7.35;;;2.58;;
73760;SDS011;69240;43.530;-5.646;2023-05-18T02:33:56;6.20;;;2.40;;
73760;SDS011;69240;43.530;-5.646;2023-05-18T02:36:22;6.30;;;2.47;;
73760;SDS011;69240;43.530;-5.646;2023-05-18T02:38:47;7.57;;;2.67;;
73760;SDS011;69240;43.530;-5.646;2023-05-18T02:41:13;5.72;;;2.25;;
73760;SDS011;69240;43.530;-5.646;2023-05-18T02:43:38;7.07;;;2.88;;
73760;SDS011;69240;43.530;-5.646;2023-05-18T02:46:04;6.90;;;2.47;;
73760;SDS011;69240;43.530;-5.646;2023-05-18T02:48:30;5.20;;;2.08;;
73760;SDS011;69240;43.530;-5.646;2023-05-18T02:50:56;8.80;;;2.33;;
73760;SDS011;69240;43.530;-5.646;2023-05-18T02:53:22;5.13;;;2.00;;
73760;SDS011;69240;43.530;-5.646;2023-05-18T02:55:48;3.85;;;2.08;;
73760;SDS011;69240;43.530;-5.646;2023-05-18T02:58:21;6.85;;;2.47;;
73760;SDS011;69240;43.530;-5.646;2023-05-18T03:00:49;7.53;;;2.55;;
73760;SDS011;69240;43.530;-5.646;2023-05-18T03:03:17;8.02;;;2.38;;
73760;SDS011;69240;43.530;-5.646;2023-05-18T03:05:42;5.30;;;2.00;;
73760;SDS011;69240;43.530;-5.646;2023-05-18T03:08:08;5.78;;;2.70;;
73760;SDS011;69240;43.530;-5.646;2023-05-18T03:10:34;8.50;;;2.85;;
73760;SDS011;69240;43.530;-5.646;2023-05-18T03:13:01;8.88;;;2.35;;
73760;SDS011;69240;43.530;-5.646;2023-05-18T03:15:27;7.82;;;2.40;;
73760;SDS011;69240;43.530;-5.646;2023-05-18T03:17:55;8.98;;;2.63;;
73760;SDS011;69240;43.530;-5.646;2023-05-18T03:20:23;4.68;;;2.17;;
73760;SDS011;69240;43.530;-5.646;2023-05-18T03:22:49;4.65;;;1.98;;
73760;SDS011;69240;43.530;-5.646;2023-05-18T03:25:15;4.65;;;2.20;;
73760;SDS011;69240;43.530;-5.646;2023-05-18T03:27:40;4.93;;;2.20;;
73760;SDS011;69240;43.530;-5.646;2023-05-18T03:30:06;8.32;;;2.15;;
73760;SDS011;69240;43.530;-5.646;2023-05-18T03:32:32;4.82;;;2.13;;
73760;SDS011;69240;43.530;-5.646;2023-05-18T03:35:00;7.65;;;2.28;;
73760;SDS011;69240;43.530;-5.646;2023-05-18T03:37:27;3.45;;;1.80;;
73760;SDS011;69240;43.530;-5.646;2023-05-18T03:39:52;6.53;;;2.15;;
73760;SDS011;69240;43.530;-5.646;2023-05-18T03:42:18;5.82;;;1.98;;
73760;SDS011;69240;43.530;-5.646;2023-05-18T03:44:44;4.70;;;2.20;;
73760;SDS011;69240;43.530;-5.646;2023-05-18T03:47:10;7.38;;;2.33;;
73760;SDS011;69240;43.530;-5.646;2023-05-18T03:49:36;3.35;;;2.03;;
73760;SDS011;69240;43.530;-5.646;2023-05-18T03:52:02;6.03;;;2.25;;
73760;SDS011;69240;43.530;-5.646;2023-05-18T03:54:28;3.80;;;2.22;;
73760;SDS011;69240;43.530;-5.646;2023-05-18T03:56:54;8.98;;;2.20;;
73760;SDS011;69240;43.530;-5.646;2023-05-18T03:59:19;4.88;;;2.15;;
73760;SDS011;69240;43.530;-5.646;2023-05-18T04:01:45;7.55;;;2.08;;
73760;SDS011;69240;43.530;-5.646;2023-05-18T04:04:10;5.28;;;2.20;;
73760;SDS011;69240;43.530;-5.646;2023-05-18T04:06:42;7.85;;;2.40;;
73760;SDS011;69240;43.530;-5.646;2023-05-18T04:09:10;6.75;;;2.20;;
73760;SDS011;69240;43.530;-5.646;2023-05-18T04:11:38;4.90;;;2.00;;
73760;SDS011;69240;43.530;-5.646;2023-05-18T04:14:06;7.68;;;2.45;;
73760;SDS011;69240;43.530;-5.646;2023-05-18T04:16:32;4.55;;;2.22;;
73760;SDS011;69240;43.530;-5.646;2023-05-18T04:18:58;5.90;;;2.10;;
73760;SDS011;69240;43.530;-5.646;2023-05-18T04:21:24;4.80;;;2.05;;
73760;SDS011;69240;43.530;-5.646;2023-05-18T04:23:50;6.03;;;2.28;;
73760;SDS011;69240;43.530;-5.646;2023-05-18T04:26:15;5.78;;;2.17;;
73760;SDS011;69240;43.530;-5.646;2023-05-18T04:28:44;4.50;;;1.77;;
73760;SDS011;69240;43.530;-5.646;2023-05-18T04:31:12;9.52;;;2.63;;
73760;SDS011;69240;43.530;-5.646;2023-05-18T04:33:41;5.80;;;1.80;;
73760;SDS011;69240;43.530;-5.646;2023-05-18T04:36:10;6.78;;;2.42;;
73760;SDS011;69240;43.530;-5.646;2023-05-18T04:38:36;6.82;;;2.33;;
73760;SDS011;69240;43.530;-5.646;2023-05-18T04:41:02;5.05;;;2.10;;
73760;SDS011;69240;43.530;-5.646;2023-05-18T04:43:32;9.95;;;2.53;;
73760;SDS011;69240;43.530;-5.646;2023-05-18T04:45:57;5.38;;;2.08;;
73760;SDS011;69240;43.530;-5.646;2023-05-18T04:48:23;4.03;;;2.10;;
73760;SDS011;69240;43.530;-5.646;2023-05-18T04:50:50;4.95;;;2.13;;
73760;SDS011;69240;43.530;-5.646;2023-05-18T04:53:18;6.03;;;2.00;;
73760;SDS011;69240;43.530;-5.646;2023-05-18T04:55:45;4.88;;;2.28;;
73760;SDS011;69240;43.530;-5.646;2023-05-18T04:58:14;8.25;;;2.30;;
73760;SDS011;69240;43.530;-5.646;2023-05-18T05:00:40;8.95;;;2.67;;
73760;SDS011;69240;43.530;-5.646;2023-05-18T05:03:07;7.03;;;2.30;;
73760;SDS011;69240;43.530;-5.646;2023-05-18T05:08:17;6.40;;;2.38;;
73760;SDS011;69240;43.530;-5.646;2023-05-18T05:10:42;6.05;;;2.38;;
73760;SDS011;69240;43.530;-5.646;2023-05-18T05:13:08;5.70;;;2.35;;
73760;SDS011;69240;43.530;-5.646;2023-05-18T05:15:34;6.88;;;2.28;;
73760;SDS011;69240;43.530;-5.646;2023-05-18T05:17:59;7.97;;;2.35;;
73760;SDS011;69240;43.530;-5.646;2023-05-18T05:20:25;6.53;;;2.40;;
73760;SDS011;69240;43.530;-5.646;2023-05-18T05:22:50;7.75;;;2.50;;
73760;SDS011;69240;43.530;-5.646;2023-05-18T05:25:16;10.20;;;2.92;;
73760;SDS011;69240;43.530;-5.646;2023-05-18T05:27:41;6.13;;;2.78;;
73760;SDS011;69240;43.530;-5.646;2023-05-18T05:30:07;8.90;;;3.00;;
73760;SDS011;69240;43.530;-5.646;2023-05-18T05:32:33;6.18;;;2.50;;
73760;SDS011;69240;43.530;-5.646;2023-05-18T05:35:00;7.95;;;2.20;;
73760;SDS011;69240;43.530;-5.646;2023-05-18T05:37:25;4.60;;;2.03;;
73760;SDS011;69240;43.530;-5.646;2023-05-18T05:39:52;6.35;;;2.25;;
73760;SDS011;69240;43.530;-5.646;2023-05-18T05:42:18;6.95;;;2.63;;
73760;SDS011;69240;43.530;-5.646;2023-05-18T05:44:43;7.57;;;2.67;;
73760;SDS011;69240;43.530;-5.646;2023-05-18T05:47:09;5.43;;;2.30;;
73760;SDS011;69240;43.530;-5.646;2023-05-18T05:49:34;7.93;;;2.80;;
73760;SDS011;69240;43.530;-5.646;2023-05-18T05:52:00;6.35;;;2.72;;
73760;SDS011;69240;43.530;-5.646;2023-05-18T05:54:25;7.75;;;2.72;;
73760;SDS011;69240;43.530;-5.646;2023-05-18T05:56:51;5.53;;;2.75;;
73760;SDS011;69240;43.530;-5.646;2023-05-18T05:59:16;7.35;;;2.65;;
73760;SDS011;69240;43.530;-5.646;2023-05-18T06:01:42;7.63;;;2.90;;
73760;SDS011;69240;43.530;-5.646;2023-05-18T06:04:08;6.10;;;2.65;;
73760;SDS011;69240;43.530;-5.646;2023-05-18T06:06:36;7.63;;;3.00;;
73760;SDS011;69240;43.530;-5.646;2023-05-18T06:09:03;6.80;;;2.70;;
73760;SDS011;69240;43.530;-5.646;2023-05-18T06:11:29;6.32;;;2.83;;
73760;SDS011;69240;43.530;-5.646;2023-05-18T06:13:55;14.20;;;3.40;;
73760;SDS011;69240;43.530;-5.646;2023-05-18T06:16:21;6.65;;;2.92;;
73760;SDS011;69240;43.530;-5.646;2023-05-18T06:18:48;6.30;;;2.95;;
73760;SDS011;69240;43.530;-5.646;2023-05-18T06:21:14;7.68;;;2.70;;
73760;SDS011;69240;43.530;-5.646;2023-05-18T06:23:41;6.35;;;3.72;;
73760;SDS011;69240;43.530;-5.646;2023-05-18T06:26:08;9.00;;;3.53;;
73760;SDS011;69240;43.530;-5.646;2023-05-18T06:28:34;6.97;;;3.28;;
73760;SDS011;69240;43.530;-5.646;2023-05-18T06:31:00;8.98;;;3.60;;
73760;SDS011;69240;43.530;-5.646;2023-05-18T06:33:25;9.48;;;3.47;;
73760;SDS011;69240;43.530;-5.646;2023-05-18T06:35:52;5.93;;;3.50;;
73760;SDS011;69240;43.530;-5.646;2023-05-18T06:38:19;6.53;;;3.65;;
73760;SDS011;69240;43.530;-5.646;2023-05-18T06:40:45;8.48;;;3.42;;
73760;SDS011;69240;43.530;-5.646;2023-05-18T06:43:10;6.13;;;3.78;;
73760;SDS011;69240;43.530;-5.646;2023-05-18T06:45:36;14.05;;;5.22;;
73760;SDS011;69240;43.530;-5.646;2023-05-18T06:48:01;10.57;;;4.10;;
73760;SDS011;69240;43.530;-5.646;2023-05-18T06:50:27;8.93;;;4.35;;
73760;SDS011;69240;43.530;-5.646;2023-05-18T06:52:52;7.05;;;3.70;;
73760;SDS011;69240;43.530;-5.646;2023-05-18T06:55:18;7.78;;;3.97;;
73760;SDS011;69240;43.530;-5.646;2023-05-18T06:57:44;6.60;;;3.80;;
73760;SDS011;69240;43.530;-5.646;2023-05-18T07:00:09;9.48;;;3.72;;
73760;SDS011;69240;43.530;-5.646;2023-05-18T07:02:36;5.70;;;2.88;;
73760;SDS011;69240;43.530;-5.646;2023-05-18T07:05:03;7.38;;;3.20;;
73760;SDS011;69240;43.530;-5.646;2023-05-18T07:07:32;6.35;;;2.83;;
73760;SDS011;69240;43.530;-5.646;2023-05-18T07:09:58;7.47;;;3.05;;
73760;SDS011;69240;43.530;-5.646;2023-05-18T07:12:24;7.05;;;2.80;;
73760;SDS011;69240;43.530;-5.646;2023-05-18T07:14:51;5.70;;;2.92;;
73760;SDS011;69240;43.530;-5.646;2023-05-18T07:17:17;9.85;;;3.20;;
73760;SDS011;69240;43.530;-5.646;2023-05-18T07:19:42;13.48;;;3.72;;
73760;SDS011;69240;43.530;-5.646;2023-05-18T07:22:08;12.60;;;3.38;;
73760;SDS011;69240;43.530;-5.646;2023-05-18T07:24:33;7.93;;;2.65;;
73760;SDS011;69240;43.530;-5.646;2023-05-18T07:26:59;8.30;;;2.75;;
73760;SDS011;69240;43.530;-5.646;2023-05-18T07:29:25;7.53;;;3.03;;
73760;SDS011;69240;43.530;-5.646;2023-05-18T07:31:51;5.60;;;2.45;;
73760;SDS011;69240;43.530;-5.646;2023-05-18T07:34:16;13.23;;;3.30;;
73760;SDS011;69240;43.530;-5.646;2023-05-18T07:36:42;5.63;;;2.83;;
73760;SDS011;69240;43.530;-5.646;2023-05-18T07:39:07;8.13;;;2.90;;
73760;SDS011;69240;43.530;-5.646;2023-05-18T07:41:41;7.82;;;2.78;;
73760;SDS011;69240;43.530;-5.646;2023-05-18T07:44:07;5.35;;;2.47;;
73760;SDS011;69240;43.530;-5.646;2023-05-18T07:46:32;6.47;;;2.58;;
73760;SDS011;69240;43.530;-5.646;2023-05-18T07:48:59;6.85;;;3.20;;
73760;SDS011;69240;43.530;-5.646;2023-05-18T07:51:25;6.78;;;2.53;;
73760;SDS011;69240;43.530;-5.646;2023-05-18T07:53:51;6.47;;;3.05;;
73760;SDS011;69240;43.530;-5.646;2023-05-18T07:56:16;7.47;;;2.55;;
73760;SDS011;69240;43.530;-5.646;2023-05-18T07:58:42;7.57;;;2.85;;
73760;SDS011;69240;43.530;-5.646;2023-05-18T08:01:08;7.10;;;2.85;;
73760;SDS011;69240;43.530;-5.646;2023-05-18T08:03:34;17.75;;;4.30;;
73760;SDS011;69240;43.530;-5.646;2023-05-18T08:06:00;4.85;;;2.30;;
73760;SDS011;69240;43.530;-5.646;2023-05-18T08:08:25;5.30;;;2.72;;
73760;SDS011;69240;43.530;-5.646;2023-05-18T08:10:51;5.88;;;2.85;;
73760;SDS011;69240;43.530;-5.646;2023-05-18T08:13:17;10.80;;;3.15;;
73760;SDS011;69240;43.530;-5.646;2023-05-18T08:15:43;7.65;;;2.70;;
73760;SDS011;69240;43.530;-5.646;2023-05-18T08:18:08;15.10;;;3.60;;
73760;SDS011;69240;43.530;-5.646;2023-05-18T08:20:34;6.05;;;3.05;;
73760;SDS011;69240;43.530;-5.646;2023-05-18T08:23:00;13.15;;;3.35;;
73760;SDS011;69240;43.530;-5.646;2023-05-18T08:25:25;10.88;;;4.10;;
73760;SDS011;69240;43.530;-5.646;2023-05-18T08:27:51;7.57;;;2.72;;
73760;SDS011;69240;43.530;-5.646;2023-05-18T08:30:17;9.45;;;3.55;;
73760;SDS011;69240;43.530;-5.646;2023-05-18T08:32:45;10.65;;;4.00;;
73760;SDS011;69240;43.530;-5.646;2023-05-18T08:35:11;8.00;;;3.00;;
73760;SDS011;69240;43.530;-5.646;2023-05-18T08:37:37;10.75;;;3.63;;
73760;SDS011;69240;43.530;-5.646;2023-05-18T08:40:04;13.07;;;3.17;;
73760;SDS011;69240;43.530;-5.646;2023-05-18T08:42:50;12.50;;;3.40;;
73760;SDS011;69240;43.530;-5.646;2023-05-18T08:47:55;10.70;;;3.40;;
73760;SDS011;69240;43.530;-5.646;2023-05-18T08:50:25;10.73;;;3.53;;
73760;SDS011;69240;43.530;-5.646;2023-05-18T08:52:54;7.28;;;3.05;;
73760;SDS011;69240;43.530;-5.646;2023-05-18T08:55:21;12.43;;;3.38;;
73760;SDS011;69240;43.530;-5.646;2023-05-18T08:57:49;9.00;;;3.38;;
73760;SDS011;69240;43.530;-5.646;2023-05-18T09:00:20;13.50;;;3.28;;
73760;SDS011;69240;43.530;-5.646;2023-05-18T09:02:46;14.68;;;3.85;;
73760;SDS011;69240;43.530;-5.646;2023-05-18T09:05:13;10.38;;;3.40;;
73760;SDS011;69240;43.530;-5.646;2023-05-18T09:07:39;8.85;;;2.92;;
73760;SDS011;69240;43.530;-5.646;2023-05-18T09:10:08;14.50;;;3.85;;
73760;SDS011;69240;43.530;-5.646;2023-05-18T09:12:35;8.10;;;2.92;;
73760;SDS011;69240;43.530;-5.646;2023-05-18T09:15:01;7.50;;;3.22;;
73760;SDS011;69240;43.530;-5.646;2023-05-18T09:17:27;11.48;;;2.72;;
73760;SDS011;69240;43.530;-5.646;2023-05-18T09:19:53;12.30;;;3.28;;
73760;SDS011;69240;43.530;-5.646;2023-05-18T09:22:18;9.98;;;3.30;;
73760;SDS011;69240;43.530;-5.646;2023-05-18T09:24:44;12.15;;;3.28;;
73760;SDS011;69240;43.530;-5.646;2023-05-18T09:27:10;11.57;;;3.40;;
73760;SDS011;69240;43.530;-5.646;2023-05-18T09:29:36;16.80;;;3.10;;
73760;SDS011;69240;43.530;-5.646;2023-05-18T09:32:16;11.68;;;3.60;;
73760;SDS011;69240;43.530;-5.646;2023-05-18T09:34:41;13.75;;;3.78;;
73760;SDS011;69240;43.530;-5.646;2023-05-18T09:37:09;14.27;;;4.25;;
73760;SDS011;69240;43.530;-5.646;2023-05-18T09:39:34;12.68;;;4.07;;
73760;SDS011;69240;43.530;-5.646;2023-05-18T09:42:01;12.48;;;3.78;;
73760;SDS011;69240;43.530;-5.646;2023-05-18T09:44:34;14.40;;;4.50;;
73760;SDS011;69240;43.530;-5.646;2023-05-18T09:47:00;13.57;;;4.40;;
73760;SDS011;69240;43.530;-5.646;2023-05-18T09:49:28;12.40;;;3.67;;
73760;SDS011;69240;43.530;-5.646;2023-05-18T09:51:55;10.98;;;3.63;;
73760;SDS011;69240;43.530;-5.646;2023-05-18T09:54:23;17.35;;;4.32;;
73760;SDS011;69240;43.530;-5.646;2023-05-18T09:56:49;10.88;;;3.53;;
73760;SDS011;69240;43.530;-5.646;2023-05-18T09:59:15;19.83;;;4.30;;
73760;SDS011;69240;43.530;-5.646;2023-05-18T10:02:00;11.68;;;3.80;;
73760;SDS011;69240;43.530;-5.646;2023-05-18T10:04:39;13.48;;;3.60;;
73760;SDS011;69240;43.530;-5.646;2023-05-18T10:07:10;14.00;;;3.83;;
73760;SDS011;69240;43.530;-5.646;2023-05-18T10:09:38;15.07;;;3.75;;
73760;SDS011;69240;43.530;-5.646;2023-05-18T10:12:14;13.68;;;3.58;;
73760;SDS011;69240;43.530;-5.646;2023-05-18T10:14:42;9.30;;;3.08;;
73760;SDS011;69240;43.530;-5.646;2023-05-18T10:17:13;14.98;;;3.80;;
73760;SDS011;69240;43.530;-5.646;2023-05-18T10:19:40;19.95;;;4.00;;
73760;SDS011;69240;43.530;-5.646;2023-05-18T10:22:06;9.90;;;3.45;;
73760;SDS011;69240;43.530;-5.646;2023-05-18T10:24:34;13.48;;;3.03;;
73760;SDS011;69240;43.530;-5.646;2023-05-18T10:27:07;12.60;;;3.25;;
73760;SDS011;69240;43.530;-5.646;2023-05-18T10:29:36;10.95;;;3.35;;
73760;SDS011;69240;43.530;-5.646;2023-05-18T10:32:03;10.25;;;3.75;;
73760;SDS011;69240;43.530;-5.646;2023-05-18T10:34:32;14.35;;;4.20;;
73760;SDS011;69240;43.530;-5.646;2023-05-18T10:37:00;18.42;;;4.25;;
73760;SDS011;69240;43.530;-5.646;2023-05-18T10:39:30;15.25;;;3.90;;
73760;SDS011;69240;43.530;-5.646;2023-05-18T10:41:58;12.77;;;3.78;;
73760;SDS011;69240;43.530;-5.646;2023-05-18T10:44:26;10.90;;;3.60;;
73760;SDS011;69240;43.530;-5.646;2023-05-18T10:46:52;16.98;;;4.00;;
73760;SDS011;69240;43.530;-5.646;2023-05-18T10:49:18;27.98;;;5.75;;
73760;SDS011;69240;43.530;-5.646;2023-05-18T10:51:49;12.45;;;3.40;;
73760;SDS011;69240;43.530;-5.646;2023-05-18T10:54:18;11.32;;;3.75;;
73760;SDS011;69240;43.530;-5.646;2023-05-18T10:56:45;14.65;;;4.18;;
73760;SDS011;69240;43.530;-5.646;2023-05-18T10:59:14;7.60;;;3.20;;
73760;SDS011;69240;43.530;-5.646;2023-05-18T11:01:40;10.05;;;2.67;;
73760;SDS011;69240;43.530;-5.646;2023-05-18T11:04:07;8.05;;;3.60;;
73760;SDS011;69240;43.530;-5.646;2023-05-18T11:06:33;8.25;;;3.25;;
73760;SDS011;69240;43.530;-5.646;2023-05-18T11:08:59;7.70;;;3.03;;
73760;SDS011;69240;43.530;-5.646;2023-05-18T11:11:25;20.50;;;3.67;;
73760;SDS011;69240;43.530;-5.646;2023-05-18T11:13:54;16.00;;;3.58;;
73760;SDS011;69240;43.530;-5.646;2023-05-18T11:16:33;7.63;;;3.40;;
73760;SDS011;69240;43.530;-5.646;2023-05-18T11:19:07;9.40;;;2.90;;
73760;SDS011;69240;43.530;-5.646;2023-05-18T11:24:22;13.23;;;3.22;;
73760;SDS011;69240;43.530;-5.646;2023-05-18T11:26:58;7.32;;;2.97;;
73760;SDS011;69240;43.530;-5.646;2023-05-18T11:29:43;10.63;;;3.33;;
73760;SDS011;69240;43.530;-5.646;2023-05-18T11:34:52;9.80;;;3.00;;
73760;SDS011;69240;43.530;-5.646;2023-05-18T11:40:11;9.40;;;2.85;;
73760;SDS011;69240;43.530;-5.646;2023-05-18T11:42:57;8.82;;;2.75;;
73760;SDS011;69240;43.530;-5.646;2023-05-18T11:45:23;5.60;;;2.47;;
73760;SDS011;69240;43.530;-5.646;2023-05-18T11:47:54;10.35;;;2.70;;
73760;SDS011;69240;43.530;-5.646;2023-05-18T11:50:25;8.75;;;2.40;;
73760;SDS011;69240;43.530;-5.646;2023-05-18T11:52:51;5.53;;;2.03;;
73760;SDS011;69240;43.530;-5.646;2023-05-18T11:55:17;6.50;;;2.22;;
73760;SDS011;69240;43.530;-5.646;2023-05-18T11:57:46;6.85;;;2.70;;
73760;SDS011;69240;43.530;-5.646;2023-05-18T12:00:13;6.15;;;1.92;;
73760;SDS011;69240;43.530;-5.646;2023-05-18T12:02:41;7.13;;;2.35;;
73760;SDS011;69240;43.530;-5.646;2023-05-18T12:05:08;5.18;;;2.00;;
73760;SDS011;69240;43.530;-5.646;2023-05-18T12:07:34;5.60;;;2.10;;
73760;SDS011;69240;43.530;-5.646;2023-05-18T12:10:06;5.65;;;2.28;;
73760;SDS011;69240;43.530;-5.646;2023-05-18T12:12:33;10.50;;;2.50;;
73760;SDS011;69240;43.530;-5.646;2023-05-18T12:15:06;8.77;;;2.22;;
73760;SDS011;69240;43.530;-5.646;2023-05-18T12:17:39;7.35;;;2.40;;
73760;SDS011;69240;43.530;-5.646;2023-05-18T12:20:09;6.32;;;1.92;;
73760;SDS011;69240;43.530;-5.646;2023-05-18T12:22:40;5.65;;;2.20;;
73760;SDS011;69240;43.530;-5.646;2023-05-18T12:25:29;4.00;;;1.88;;
73760;SDS011;69240;43.530;-5.646;2023-05-18T12:28:05;9.23;;;2.22;;
73760;SDS011;69240;43.530;-5.646;2023-05-18T12:31:24;4.03;;;2.22;;
73760;SDS011;69240;43.530;-5.646;2023-05-18T12:34:34;10.15;;;2.47;;
73760;SDS011;69240;43.530;-5.646;2023-05-18T12:37:50;6.18;;;2.65;;
73760;SDS011;69240;43.530;-5.646;2023-05-18T12:40:59;6.63;;;2.17;;
73760;SDS011;69240;43.530;-5.646;2023-05-18T12:44:08;9.23;;;2.45;;
73760;SDS011;69240;43.530;-5.646;2023-05-18T12:47:50;5.47;;;2.38;;
73760;SDS011;69240;43.530;-5.646;2023-05-18T12:51:32;5.53;;;2.15;;
73760;SDS011;69240;43.530;-5.646;2023-05-18T12:58:15;8.30;;;2.30;;
73760;SDS011;69240;43.530;-5.646;2023-05-18T13:01:14;7.63;;;2.22;;
73760;SDS011;69240;43.530;-5.646;2023-05-18T13:03:40;3.78;;;1.92;;
73760;SDS011;69240;43.530;-5.646;2023-05-18T13:06:06;5.50;;;2.35;;
73760;SDS011;69240;43.530;-5.646;2023-05-18T13:08:34;9.05;;;2.15;;
73760;SDS011;69240;43.530;-5.646;2023-05-18T13:11:12;6.60;;;2.63;;
73760;SDS011;69240;43.530;-5.646;2023-05-18T13:13:57;7.60;;;2.42;;
73760;SDS011;69240;43.530;-5.646;2023-05-18T13:16:27;10.35;;;2.45;;
73760;SDS011;69240;43.530;-5.646;2023-05-18T13:18:56;7.22;;;2.47;;
73760;SDS011;69240;43.530;-5.646;2023-05-18T13:21:34;4.80;;;1.90;;
73760;SDS011;69240;43.530;-5.646;2023-05-18T13:24:00;10.25;;;2.58;;
73760;SDS011;69240;43.530;-5.646;2023-05-18T13:26:29;9.88;;;2.50;;
73760;SDS011;69240;43.530;-5.646;2023-05-18T13:28:57;9.23;;;2.03;;
73760;SDS011;69240;43.530;-5.646;2023-05-18T13:31:25;8.63;;;2.28;;
73760;SDS011;69240;43.530;-5.646;2023-05-18T13:33:57;8.65;;;2.38;;
73760;SDS011;69240;43.530;-5.646;2023-05-18T13:36:22;7.47;;;2.05;;
73760;SDS011;69240;43.530;-5.646;2023-05-18T13:38:48;7.22;;;2.20;;
73760;SDS011;69240;43.530;-5.646;2023-05-18T13:41:16;6.07;;;2.33;;
73760;SDS011;69240;43.530;-5.646;2023-05-18T13:43:42;6.00;;;2.30;;
73760;SDS011;69240;43.530;-5.646;2023-05-18T13:46:08;5.80;;;2.25;;
73760;SDS011;69240;43.530;-5.646;2023-05-18T13:48:35;4.45;;;1.70;;
73760;SDS011;69240;43.530;-5.646;2023-05-18T13:51:02;8.25;;;2.53;;
73760;SDS011;69240;43.530;-5.646;2023-05-18T13:53:27;10.90;;;2.53;;
73760;SDS011;69240;43.530;-5.646;2023-05-18T13:55:53;6.63;;;2.47;;
73760;SDS011;69240;43.530;-5.646;2023-05-18T13:58:19;6.57;;;2.42;;
73760;SDS011;69240;43.530;-5.646;2023-05-18T14:00:44;7.68;;;2.42;;
73760;SDS011;69240;43.530;-5.646;2023-05-18T14:03:15;6.32;;;2.40;;
73760;SDS011;69240;43.530;-5.646;2023-05-18T14:05:48;6.40;;;2.30;;
73760;SDS011;69240;43.530;-5.646;2023-05-18T14:08:14;9.32;;;1.88;;
73760;SDS011;69240;43.530;-5.646;2023-05-18T14:10:39;6.85;;;2.33;;
73760;SDS011;69240;43.530;-5.646;2023-05-18T14:13:05;3.97;;;1.98;;
73760;SDS011;69240;43.530;-5.646;2023-05-18T14:15:32;6.20;;;2.00;;
73760;SDS011;69240;43.530;-5.646;2023-05-18T14:18:01;3.70;;;2.10;;
73760;SDS011;69240;43.530;-5.646;2023-05-18T14:20:29;8.02;;;2.03;;
73760;SDS011;69240;43.530;-5.646;2023-05-18T14:22:55;7.22;;;2.45;;
73760;SDS011;69240;43.530;-5.646;2023-05-18T14:25:23;8.25;;;2.42;;
73760;SDS011;69240;43.530;-5.646;2023-05-18T14:27:49;4.75;;;2.30;;
73760;SDS011;69240;43.530;-5.646;2023-05-18T14:30:15;7.25;;;2.20;;
73760;SDS011;69240;43.530;-5.646;2023-05-18T14:33:01;4.15;;;2.17;;
73760;SDS011;69240;43.530;-5.646;2023-05-18T14:35:30;4.60;;;1.95;;
73760;SDS011;69240;43.530;-5.646;2023-05-18T14:37:56;5.15;;;2.10;;
73760;SDS011;69240;43.530;-5.646;2023-05-18T14:40:21;6.60;;;2.15;;
73760;SDS011;69240;43.530;-5.646;2023-05-18T14:42:47;5.95;;;2.20;;
73760;SDS011;69240;43.530;-5.646;2023-05-18T14:45:13;7.68;;;2.40;;
73760;SDS011;69240;43.530;-5.646;2023-05-18T14:47:38;8.25;;;2.40;;
73760;SDS011;69240;43.530;-5.646;2023-05-18T14:50:04;6.90;;;2.38;;
73760;SDS011;69240;43.530;-5.646;2023-05-18T14:52:30;9.23;;;2.50;;
73760;SDS011;69240;43.530;-5.646;2023-05-18T14:54:56;11.00;;;2.53;;
73760;SDS011;69240;43.530;-5.646;2023-05-18T14:57:22;6.90;;;2.30;;
73760;SDS011;69240;43.530;-5.646;2023-05-18T14:59:50;4.30;;;2.15;;
73760;SDS011;69240;43.530;-5.646;2023-05-18T15:02:16;7.78;;;2.58;;
73760;SDS011;69240;43.530;-5.646;2023-05-18T15:04:42;7.85;;;2.50;;
73760;SDS011;69240;43.530;-5.646;2023-05-18T15:07:07;8.43;;;2.53;;
73760;SDS011;69240;43.530;-5.646;2023-05-18T15:09:33;5.80;;;1.80;;
73760;SDS011;69240;43.530;-5.646;2023-05-18T15:11:59;6.30;;;2.40;;
73760;SDS011;69240;43.530;-5.646;2023-05-18T15:14:25;6.53;;;2.33;;